Sunday, March 29, 2015

  Over 48,494,314 pages visited!

GMT:
07:20
PACIFIC:
12:20:15 AM
MOUNTAIN:
1:20:15 AM

CENTRAL:
2:20:15 AM

EASTERN:
3:20:15 AM
ATLANTIC:
4:20:15 AM
NEWFOUNDLAND:
4:50:15 AM
 

 


Watches/Warnings
Current Conditions
Radar/Satellite
Lightning Images


Current Weather Conditions For TORONTO PEARSON,ON

 


Partly Cloudy
 

Temperature: -9C / 16F
Dew Point: -14C / 7F
Humidity: 67 %
Pressure: 1025.4 mbs (30.28 inches)
Visibility: 24.1 kms (15 SM)
Wind Direction: WSW (260)
Wind Speed: 11.1 Km/h (6.9 MPH)
Max Wind Gust: No Gusts
Humidex: N/A
WindChill: -14C
    

Observation Information

Date/Time: Monday, March 30, 2015 @ 07:00Z
Local Time:
Metar Coded: CYYZ 290700Z 26006KT 15SM SKC M09/M14 A3025 RMK SLP254

 

 

                   1997-2015 The Ontario Weather Page